Time;durP1;ratioP1;P1;durP2;ratioP2;P2;SDS_P1;SDS_P2;PMS_P1;PMS_P2;Temp;Humidity;BMP_temperature;BMP_pressure;BME280_temperature;BME280_humidity;BME280_pressure;Samples;Min_cycle;Max_cycle;Signal;HPM_P1;HPM_P2
2023/04/11 14:44:12;;;;;;;12.20;4.40;;;;;;;21.76;45.71;100974.63;5119427;27;20929;-43
2023/04/11 14:46:39;;;;;;;15.00;4.28;;;;;;;22.53;43.44;100968.38;5108652;28;20035;-44
2023/04/11 14:49:08;;;;;;;12.18;3.60;;;;;;;23.13;42.17;100965.97;5109680;28;20423;-52
2023/04/11 14:51:36;;;;;;;13.75;4.07;;;;;;;23.60;40.92;100964.97;5109855;28;20040;-50
2023/04/11 14:54:05;;;;;;;9.95;3.53;;;;;;;23.94;40.08;100964.56;5109674;28;20115;-53
2023/04/11 14:56:33;;;;;;;14.07;3.72;;;;;;;24.13;39.95;100957.84;5108918;28;20032;-46
2023/04/11 14:59:01;;;;;;;10.23;3.60;;;;;;;24.22;39.67;100957.06;5109658;28;20425;-53
2023/04/11 15:01:29;;;;;;;10.63;3.58;;;;;;;24.32;39.25;100939.72;5109628;28;20035;-50
2023/04/11 15:03:57;;;;;;;11.35;4.40;;;;;;;24.32;39.26;100940.63;5109094;28;20055;-49
2023/04/11 15:06:25;;;;;;;13.02;4.57;;;;;;;24.42;39.08;100934.59;5108951;28;20023;-44
2023/04/11 15:08:52;;;;;;;12.35;3.97;;;;;;;24.40;38.90;100920.59;5109217;28;20028;-44
2023/04/11 15:11:21;;;;;;;11.27;4.00;;;;;;;24.46;38.58;100916.28;5109089;28;20032;-47
2023/04/11 15:13:51;;;;;;;10.90;3.90;;;;;;;24.51;38.62;100912.84;5107692;28;20353;-44
2023/04/11 15:16:20;;;;;;;10.43;3.85;;;;;;;24.50;38.46;100900.59;5109331;28;20446;-52
2023/04/11 15:18:48;;;;;;;9.15;3.67;;;;;;;24.58;38.32;100888.41;5108477;28;20024;-47
2023/04/11 15:21:16;;;;;;;9.95;3.40;;;;;;;24.52;38.69;100884.84;5107322;28;20039;-44
2023/04/11 15:23:44;;;;;;;9.48;3.42;;;;;;;24.52;38.45;100882.22;5108180;28;20045;-53
2023/04/11 15:26:11;;;;;;;11.13;3.85;;;;;;;24.60;38.41;100880.56;5104751;28;20107;-44
2023/04/11 15:28:40;;;;;;;9.25;3.38;;;;;;;24.51;38.82;100872.59;5108733;28;20016;-54
2023/04/11 15:31:10;;;;;;;11.45;3.72;;;;;;;24.61;38.61;100869.22;5108414;28;20111;-52
2023/04/11 15:33:38;;;;;;;11.93;3.78;;;;;;;24.64;38.07;100869.25;5108357;28;20423;-53
2023/04/11 15:36:07;;;;;;;15.38;4.40;;;;;;;24.66;37.97;100846.50;5108931;28;20105;-49
2023/04/11 15:38:36;;;;;;;13.43;4.63;;;;;;;24.70;38.17;100836.97;5109198;28;20028;-52
2023/04/11 15:41:06;;;;;;;15.65;4.95;;;;;;;24.71;38.06;100823.84;5109123;28;20024;-53
2023/04/11 15:43:35;;;;;;;11.95;4.38;;;;;;;24.73;38.33;100827.38;5106658;28;20074;-43
2023/04/11 15:46:04;;;;;;;13.57;4.57;;;;;;;24.71;38.26;100818.59;5108437;28;20046;-53
2023/04/11 15:48:32;;;;;;;11.68;4.55;;;;;;;24.65;38.56;100808.06;5108748;28;20103;-50
2023/04/11 15:51:09;;;;;;;11.60;4.63;;;;;;;24.72;38.21;100809.88;5109074;28;20048;-50
2023/04/11 15:53:37;;;;;;;14.88;4.45;;;;;;;24.61;38.22;100789.63;5105007;28;20034;-47
2023/04/11 15:56:06;;;;;;;12.90;4.40;;;;;;;24.55;38.26;100790.47;5095105;28;20032;-50
2023/04/11 15:58:35;;;;;;;11.20;4.28;;;;;;;24.56;38.29;100784.38;5095349;28;20031;-52
2023/04/11 16:01:04;;;;;;;14.38;4.38;;;;;;;24.52;38.39;100777.34;5095117;28;20052;-44
2023/04/11 16:03:33;;;;;;;12.93;5.10;;;;;;;24.56;38.41;100768.63;5094620;28;20039;-50
2023/04/11 16:06:02;;;;;;;13.40;4.43;;;;;;;24.58;38.48;100772.16;5094588;28;20028;-46
2023/04/11 16:08:31;;;;;;;14.10;4.38;;;;;;;24.59;38.22;100760.78;5095136;28;20103;-52
2023/04/11 16:10:59;;;;;;;11.35;4.35;;;;;;;24.57;38.11;100746.78;5094886;28;20370;-43
2023/04/11 16:13:27;;;;;;;19.08;4.75;;;;;;;24.50;38.23;100734.47;5094247;28;20028;-48
2023/04/11 16:15:54;;;;;;;12.30;4.15;;;;;;;24.59;38.11;100724.06;5092842;28;20035;-50
2023/04/11 16:18:21;;;;;;;13.40;4.80;;;;;;;24.67;37.79;100724.97;5094883;28;20039;-50
2023/04/11 16:20:48;;;;;;;10.75;3.72;;;;;;;24.76;37.93;100718.94;5092879;28;20032;-44
2023/04/11 16:23:16;;;;;;;13.05;4.30;;;;;;;24.68;37.95;100697.03;5095015;28;20122;-53
2023/04/11 16:25:43;;;;;;;12.45;5.03;;;;;;;24.67;37.69;100683.00;5095244;28;20035;-44
2023/04/11 16:28:12;;;;;;;15.35;4.93;;;;;;;24.70;37.73;100693.56;5094977;28;20056;-47
2023/04/11 16:30:41;;;;;;;14.95;5.28;;;;;;;24.68;37.68;100684.78;5095193;28;20397;-52
2023/04/11 16:33:08;;;;;;;14.80;5.80;;;;;;;24.65;38.12;100660.28;5094630;28;20032;-48
2023/04/11 16:35:35;;;;;;;19.35;5.47;;;;;;;24.67;37.58;100653.31;5094815;28;20024;-50
2023/04/11 16:38:04;;;;;;;15.90;5.35;;;;;;;24.67;37.32;100667.28;5094717;28;20028;-53
2023/04/11 16:40:32;;;;;;;13.27;4.70;;;;;;;24.64;37.77;100651.56;5094730;28;20045;-44
2023/04/11 16:43:00;;;;;;;15.80;5.05;;;;;;;24.70;37.33;100645.50;5092221;28;20055;-53
2023/04/11 16:45:27;;;;;;;20.25;5.10;;;;;;;24.64;37.60;100648.94;5094675;28;20058;-52
2023/04/11 16:47:54;;;;;;;15.00;5.15;;;;;;;24.65;37.75;100626.19;5094379;28;20482;-53
2023/04/11 16:50:21;;;;;;;13.48;4.97;;;;;;;24.68;37.52;100620.97;5094614;28;20032;-44
2023/04/11 16:52:49;;;;;;;17.95;7.35;;;;;;;24.56;37.70;100624.41;5093973;28;20020;-54
2023/04/11 16:55:16;;;;;;;17.80;7.72;;;;;;;24.55;37.70;100610.41;5094456;28;20096;-52
2023/04/11 16:57:44;;;;;;;15.55;6.97;;;;;;;24.57;37.54;100605.16;5094291;28;20020;-44
2023/04/11 17:00:15;;;;;;;21.70;6.60;;;;;;;24.53;37.95;100601.66;5094200;28;20020;-54
2023/04/11 17:02:42;;;;;;;16.63;6.30;;;;;;;24.49;37.80;100592.03;5094228;28;20467;-54
2023/04/11 17:05:11;;;;;;;16.17;6.22;;;;;;;24.54;38.07;100574.56;5075537;28;20020;-48
2023/04/11 17:07:38;;;;;;;15.93;5.78;;;;;;;24.72;37.36;100570.31;5093496;28;20028;-46
2023/04/11 17:10:07;;;;;;;13.95;5.38;;;;;;;24.73;37.47;100553.69;5094263;28;20031;-54
2023/04/11 17:12:34;;;;;;;21.15;5.63;;;;;;;24.71;37.44;100564.16;5094292;28;20028;-55
2023/04/11 17:15:01;;;;;;;15.00;5.35;;;;;;;24.75;37.77;100558.94;5094205;28;20028;-48
2023/04/11 17:17:29;;;;;;;14.30;5.43;;;;;;;24.85;37.39;100558.09;5093567;28;20028;-54
2023/04/11 17:19:56;;;;;;;13.55;5.13;;;;;;;24.85;37.36;100555.47;5093682;28;20119;-53
2023/04/11 17:22:23;;;;;;;12.63;4.97;;;;;;;24.94;37.15;100550.25;5093866;28;20504;-49
2023/04/11 17:24:50;;;;;;;14.02;4.97;;;;;;;24.96;37.25;100543.25;5092837;28;20107;-47
2023/04/11 17:27:17;;;;;;;11.95;4.55;;;;;;;25.02;37.41;100538.00;5093044;28;20553;-55
2023/04/11 17:29:45;;;;;;;20.52;5.35;;;;;;;25.05;37.11;100531.03;5094013;28;20032;-48
2023/04/11 17:32:12;;;;;;;20.25;7.05;;;;;;;25.11;37.07;100528.41;5093974;28;20081;-51
2023/04/11 17:34:40;;;;;;;13.43;6.10;;;;;;;25.13;37.29;100522.28;5092563;28;20428;-47
2023/04/11 17:37:07;;;;;;;13.43;6.05;;;;;;;25.14;37.26;100523.19;5092211;28;20036;-50
2023/04/11 17:39:35;;;;;;;13.65;5.63;;;;;;;25.18;37.20;100519.66;5093876;28;20021;-53
2023/04/11 17:42:02;;;;;;;15.07;5.82;;;;;;;25.28;37.10;100503.06;5093249;28;20059;-48
2023/04/11 17:44:29;;;;;;;12.40;5.25;;;;;;;25.24;37.10;100503.03;5092978;28;20028;-43
2023/04/11 17:46:59;;;;;;;15.20;5.28;;;;;;;25.31;37.23;100502.16;5075475;28;20028;-49
2023/04/11 17:49:28;;;;;;;13.60;4.90;;;;;;;25.29;37.02;100493.41;5093364;28;20036;-49
2023/04/11 17:51:56;;;;;;;13.18;5.00;;;;;;;25.45;36.84;100486.44;5093546;28;20048;-52
2023/04/11 17:54:25;;;;;;;14.00;5.50;;;;;;;25.56;36.76;100484.69;5093455;28;20020;-50
2023/04/11 17:56:53;;;;;;;11.95;5.28;;;;;;;25.61;36.78;100480.31;5093267;28;20076;-49
2023/04/11 17:59:22;;;;;;;15.50;5.57;;;;;;;25.60;36.80;100477.66;5093132;28;20031;-50
2023/04/11 18:01:52;;;;;;;15.73;5.53;;;;;;;25.61;37.17;100471.53;5093450;28;20024;-50
2023/04/11 18:04:20;;;;;;;14.50;4.85;;;;;;;25.70;36.96;100468.00;5093578;28;20024;-50
2023/04/11 18:06:47;;;;;;;11.40;4.40;;;;;;;25.72;36.93;100459.28;5091769;28;20028;-44
2023/04/11 18:09:16;;;;;;;14.93;4.63;;;;;;;25.70;36.99;100458.41;5092683;28;20028;-53
2023/04/11 18:11:43;;;;;;;15.50;5.30;;;;;;;25.79;36.87;100450.47;5092924;28;20107;-50
2023/04/11 18:14:11;;;;;;;16.50;5.28;;;;;;;25.80;37.05;100456.63;5092804;28;20028;-53
2023/04/11 18:16:39;;;;;;;21.42;7.25;;;;;;;25.84;36.84;100436.47;5092720;28;20060;-54
2023/04/11 18:19:08;;;;;;;19.45;8.82;;;;;;;25.94;36.65;100440.78;5092670;28;20031;-52
2023/04/11 18:21:36;;;;;;;23.13;12.10;;;;;;;25.93;36.74;100437.31;5093706;28;20108;-52
2023/04/11 18:24:03;;;;;;;20.77;10.55;;;;;;;25.94;37.13;100439.06;5092844;28;20046;-49
2023/04/11 18:26:32;;;;;;;23.65;9.10;;;;;;;25.96;37.11;100438.19;5091815;28;20028;-44
2023/04/11 18:28:59;;;;;;;26.42;10.02;;;;;;;25.98;37.19;100434.66;5092637;28;20020;-47
2023/04/11 18:31:27;;;;;;;23.40;10.20;;;;;;;25.97;37.39;100418.91;5093112;28;20477;-47
2023/04/11 18:33:55;;;;;;;21.60;9.38;;;;;;;26.01;37.14;100418.88;5091458;28;20495;-53
2023/04/11 18:36:23;;;;;;;19.52;9.05;;;;;;;26.03;37.24;100421.50;5092575;28;20443;-53
2023/04/11 18:38:50;;;;;;;22.58;8.68;;;;;;;26.07;37.15;100420.59;5092409;28;20496;-49
2023/04/11 18:41:17;;;;;;;21.83;9.20;;;;;;;26.13;37.10;100412.72;5092865;28;20073;-50
2023/04/11 18:43:44;;;;;;;23.05;8.70;;;;;;;26.12;37.24;100410.09;5092680;28;20040;-49
2023/04/11 18:46:12;;;;;;;20.58;7.82;;;;;;;26.14;36.96;100401.34;5092785;28;20059;-52
2023/04/11 18:48:40;;;;;;;18.80;7.47;;;;;;;26.22;37.00;100412.66;5093009;28;20096;-52
2023/04/11 18:51:07;;;;;;;20.60;7.88;;;;;;;26.29;36.89;100402.13;5092166;28;20024;-54
2023/04/11 18:53:35;;;;;;;19.90;7.80;;;;;;;26.35;36.68;100391.56;5092419;28;20039;-53
2023/04/11 18:56:03;;;;;;;18.10;7.15;;;;;;;26.34;36.98;100395.06;5092381;28;20028;-49
2023/04/11 18:58:32;;;;;;;20.02;7.45;;;;;;;26.29;36.97;100391.63;5091074;28;20016;-52
2023/04/11 19:00:59;;;;;;;19.40;7.63;;;;;;;26.29;36.92;100378.47;5092018;28;20081;-51
2023/04/11 19:03:27;;;;;;;19.40;7.18;;;;;;;26.29;37.07;100370.59;5091465;28;20032;-46
2023/04/11 19:05:56;;;;;;;16.02;6.65;;;;;;;26.29;37.04;100370.59;5092798;28;20527;-51
2023/04/11 19:08:23;;;;;;;16.77;6.38;;;;;;;26.31;36.97;100360.94;5092509;28;20110;-52
2023/04/11 19:10:52;;;;;;;16.25;7.40;;;;;;;26.17;37.02;100347.88;5092089;28;20058;-51
2023/04/11 19:13:19;;;;;;;17.90;6.45;;;;;;;26.27;36.87;100373.19;5092575;28;20112;-51
2023/04/11 19:15:47;;;;;;;18.13;6.82;;;;;;;26.28;36.93;100359.19;5091347;28;20477;-52
2023/04/11 19:18:15;;;;;;;16.70;6.20;;;;;;;26.24;37.11;100353.06;5091280;28;20149;-52
2023/04/11 19:20:42;;;;;;;15.93;6.63;;;;;;;26.27;36.94;100348.69;5092127;28;20028;-51
2023/04/11 19:23:09;;;;;;;17.70;6.90;;;;;;;26.26;36.93;100357.44;5091014;28;20031;-48
2023/04/11 19:25:37;;;;;;;15.57;6.45;;;;;;;26.27;37.05;100351.31;5091377;28;20492;-52
2023/04/11 19:28:04;;;;;;;15.43;6.45;;;;;;;26.23;36.83;100330.28;5092350;28;20466;-51
2023/04/11 19:30:33;;;;;;;15.57;6.55;;;;;;;26.28;36.74;100353.06;5095752;28;20099;-52
2023/04/11 19:33:01;;;;;;;19.40;6.63;;;;;;;26.28;36.71;100332.88;5095969;28;20058;-52
2023/04/11 19:35:28;;;;;;;15.52;5.60;;;;;;;26.28;37.08;100325.00;5094973;28;20032;-52
2023/04/11 19:37:57;;;;;;;13.25;5.53;;;;;;;26.27;36.83;100335.53;5096429;28;20036;-52
2023/04/11 19:40:24;;;;;;;14.82;5.20;;;;;;;26.29;36.68;100326.75;5095951;28;20093;-53
2023/04/11 19:42:51;;;;;;;11.95;5.03;;;;;;;26.26;36.93;100324.13;5095691;28;20048;-53
2023/04/11 19:45:19;;;;;;;15.38;5.95;;;;;;;26.26;37.03;100323.28;5096019;28;20066;-50
2023/04/11 19:47:46;;;;;;;12.38;4.97;;;;;;;26.26;36.73;100316.25;5096295;28;20024;-52
2023/04/11 19:50:14;;;;;;;14.52;5.38;;;;;;;26.27;36.64;100315.34;5096353;28;20030;-51
2023/04/11 19:52:42;;;;;;;15.15;5.35;;;;;;;26.27;36.71;100314.50;5094794;28;20025;-52
2023/04/11 19:55:11;;;;;;;12.82;5.15;;;;;;;26.24;36.64;100313.63;5095831;28;20024;-44
2023/04/11 19:57:39;;;;;;;17.08;5.93;;;;;;;26.19;36.82;100306.66;5095778;28;20056;-52
2023/04/11 20:00:11;;;;;;;15.85;6.18;;;;;;;26.20;36.71;100298.75;5095810;28;20023;-52
2023/04/11 20:02:43;;;;;;;15.13;5.60;;;;;;;26.16;36.95;100289.13;5094630;28;20043;-50
2023/04/11 20:05:11;;;;;;;14.82;5.68;;;;;;;26.14;36.76;100293.56;5095042;28;20024;-53
2023/04/11 20:07:39;;;;;;;13.82;4.93;;;;;;;26.17;36.71;100290.88;5095594;28;20058;-52
2023/04/11 20:10:06;;;;;;;16.73;5.75;;;;;;;26.18;36.62;100289.16;5094487;28;20055;-53
2023/04/11 20:12:34;;;;;;;16.80;5.75;;;;;;;26.13;36.94;100286.56;5095664;28;20032;-52
2023/04/11 20:15:02;;;;;;;15.18;5.47;;;;;;;26.10;36.98;100276.03;5093939;28;20032;-53
2023/04/11 20:17:30;;;;;;;16.48;6.22;;;;;;;26.10;36.75;100283.91;5093977;28;20027;-51
2023/04/11 20:19:58;;;;;;;15.57;5.60;;;;;;;26.09;36.94;100269.03;5095557;28;20028;-53
2023/04/11 20:22:25;;;;;;;14.88;5.47;;;;;;;26.06;36.84;100263.78;5093557;28;20024;-48
2023/04/11 20:24:53;;;;;;;16.08;5.35;;;;;;;26.05;36.99;100267.28;5095432;28;20020;-54
2023/04/11 20:27:20;;;;;;;10.55;4.25;;;;;;;26.07;36.95;100257.63;5094971;28;20099;-54
2023/04/11 20:29:48;;;;;;;14.30;5.18;;;;;;;25.93;36.88;100269.13;5094233;28;20026;-54
2023/04/11 20:32:16;;;;;;;12.10;4.68;;;;;;;25.89;37.00;100300.69;5095166;28;20477;-52
2023/04/11 20:34:43;;;;;;;13.30;4.57;;;;;;;25.96;37.10;100306.78;5094722;28;20031;-44
2023/04/11 20:37:11;;;;;;;15.75;5.82;;;;;;;25.94;37.01;100306.78;5094799;28;20469;-53
2023/04/11 20:39:39;;;;;;;16.30;5.60;;;;;;;25.86;37.35;100309.44;5094726;28;20047;-52
2023/04/11 20:42:09;;;;;;;11.30;4.25;;;;;;;25.91;37.31;100299.78;5094712;28;20035;-53
2023/04/11 20:44:38;;;;;;;12.65;4.57;;;;;;;25.90;37.42;100286.63;5095240;28;20028;-43
2023/04/11 20:47:07;;;;;;;13.35;4.72;;;;;;;25.97;37.08;100300.66;5095166;28;20437;-52
2023/04/11 20:49:36;;;;;;;12.85;3.97;;;;;;;26.00;37.22;100282.19;5094804;28;20051;-50
2023/04/11 20:52:05;;;;;;;12.15;4.57;;;;;;;25.97;37.09;100274.38;5093521;28;20370;-50
2023/04/11 20:54:33;;;;;;;13.55;4.57;;;;;;;25.89;37.08;100279.66;5094662;28;20035;-52
2023/04/11 20:57:02;;;;;;;8.88;3.90;;;;;;;25.82;37.45;100275.31;5094345;28;20028;-50
2023/04/11 20:59:34;;;;;;;10.40;4.43;;;;;;;25.78;37.35;100271.84;5094715;28;20031;-44
2023/04/11 21:02:03;;;;;;;17.10;4.57;;;;;;;25.79;37.35;100269.19;5094510;28;20432;-43
2023/04/11 21:04:31;;;;;;;8.45;3.90;;;;;;;25.81;37.39;100273.56;5093559;28;20028;-53
2023/04/11 21:07:00;;;;;;;11.93;4.68;;;;;;;25.78;37.40;100272.69;5094606;28;20182;-43
2023/04/11 21:09:28;;;;;;;12.35;4.20;;;;;;;25.77;37.59;100270.09;5094774;28;20060;-44
2023/04/11 21:11:57;;;;;;;10.98;4.70;;;;;;;25.78;37.29;100259.56;5092580;28;20587;-43
2023/04/11 21:14:25;;;;;;;11.80;4.55;;;;;;;25.78;37.37;100261.34;5094503;28;20036;-52
2023/04/11 21:16:54;;;;;;;8.63;3.70;;;;;;;25.70;37.44;100252.59;5094114;28;20045;-52
2023/04/11 21:19:23;;;;;;;9.25;4.00;;;;;;;25.75;37.28;100248.22;5093989;28;20388;-43
2023/04/11 21:21:52;;;;;;;12.35;4.78;;;;;;;25.67;37.80;100250.88;5093038;28;20024;-49
2023/04/11 21:24:20;;;;;;;8.77;3.65;;;;;;;25.71;37.40;100249.09;5094186;28;20039;-43
2023/04/11 21:26:49;;;;;;;7.82;3.67;;;;;;;25.68;37.65;100244.75;5094025;28;20043;-52
2023/04/11 21:29:17;;;;;;;7.88;3.13;;;;;;;25.65;37.26;100230.78;5094436;28;20035;-51
2023/04/11 21:31:46;;;;;;;7.93;3.22;;;;;;;25.64;37.38;100229.88;5094081;28;20022;-52
2023/04/11 21:34:15;;;;;;;7.15;2.92;;;;;;;25.67;37.19;100223.72;5094536;28;20093;-53
2023/04/11 21:36:43;;;;;;;10.50;3.70;;;;;;;25.71;37.34;100225.47;5093629;28;20031;-49
2023/04/11 21:39:12;;;;;;;8.85;3.40;;;;;;;25.69;37.45;100225.47;5093795;28;20103;-52
2023/04/11 21:41:40;;;;;;;5.32;2.50;;;;;;;25.63;37.43;100226.41;5094176;28;20538;-53
2023/04/11 21:44:09;;;;;;;6.30;3.20;;;;;;;25.61;37.50;100228.16;5093527;28;20048;-53
2023/04/11 21:46:37;;;;;;;6.22;2.85;;;;;;;25.66;37.31;100221.97;5093892;28;20470;-47
2023/04/11 21:49:06;;;;;;;6.25;2.92;;;;;;;25.61;37.37;100209.78;5094039;28;20028;-52
2023/04/11 21:51:35;;;;;;;6.70;3.17;;;;;;;25.58;37.32;100208.88;5093347;28;20024;-52
2023/04/11 21:54:05;;;;;;;7.55;3.22;;;;;;;25.57;37.33;100201.88;5093600;28;20449;-45
2023/04/11 21:56:33;;;;;;;8.48;2.92;;;;;;;25.59;37.50;100201.03;5093059;28;20051;-52
2023/04/11 21:59:02;;;;;;;7.30;2.92;;;;;;;25.54;37.53;100210.66;5093608;28;20093;-48
2023/04/11 22:01:30;;;;;;;6.03;2.70;;;;;;;25.49;37.63;100215.06;5093931;28;20028;-52
2023/04/11 22:04:00;;;;;;;6.45;2.80;;;;;;;25.42;37.81;100214.22;5093490;28;20442;-49
2023/04/11 22:06:29;;;;;;;5.25;2.15;;;;;;;25.46;37.67;100210.72;5093647;28;20020;-52
2023/04/11 22:09:00;;;;;;;4.93;2.83;;;;;;;25.44;37.64;100217.72;5092136;28;20122;-45
2023/04/11 22:11:28;;;;;;;7.88;3.00;;;;;;;25.42;37.71;100213.38;5093438;28;20393;-42
2023/04/11 22:13:57;;;;;;;7.75;3.30;;;;;;;25.38;37.86;100211.59;5092029;28;20481;-52
2023/04/11 22:16:29;;;;;;;9.82;4.00;;;;;;;25.32;37.75;100202.88;5093173;28;20027;-46
2023/04/11 22:18:58;;;;;;;5.25;2.97;;;;;;;25.46;37.53;100200.22;5091811;28;20015;-50
2023/04/11 22:21:27;;;;;;;8.10;2.90;;;;;;;25.45;37.62;100197.59;5093722;28;20073;-52
2023/04/11 22:23:56;;;;;;;7.05;3.15;;;;;;;25.34;37.72;100203.72;5093233;28;20063;-43
2023/04/11 22:26:28;;;;;;;6.28;3.15;;;;;;;25.30;38.04;100214.25;5093066;28;20024;-45
2023/04/11 22:28:57;;;;;;;6.03;3.00;;;;;;;25.33;37.63;100204.59;5093578;28;20485;-50
2023/04/11 22:31:29;;;;;;;5.85;2.60;;;;;;;25.37;37.62;100200.25;5093019;28;20036;-53
2023/04/11 22:33:58;;;;;;;7.55;3.15;;;;;;;25.41;37.69;100187.97;5093248;28;20040;-49
2023/04/11 22:36:27;;;;;;;6.43;2.70;;;;;;;25.41;37.34;100169.56;5093497;28;20048;-49
2023/04/11 22:38:55;;;;;;;6.57;3.08;;;;;;;25.32;37.68;100183.63;5093394;28;20032;-43
2023/04/11 22:41:24;;;;;;;5.85;2.47;;;;;;;25.30;37.74;100181.03;5093029;28;20108;-46
2023/04/11 22:43:53;;;;;;;5.43;2.88;;;;;;;25.37;37.42;100162.59;5092575;28;20489;-47
2023/04/11 22:46:21;;;;;;;8.50;3.15;;;;;;;25.33;37.42;100170.47;5092861;28;20028;-44
2023/04/11 22:48:51;;;;;;;5.50;2.42;;;;;;;25.26;37.79;100167.91;5093210;28;20545;-44
2023/04/11 22:51:20;;;;;;;6.82;2.53;;;;;;;25.30;37.67;100175.78;5091874;28;20088;-47
2023/04/11 22:53:48;;;;;;;6.50;2.45;;;;;;;25.25;38.11;100185.41;5092886;28;20103;-50
2023/04/11 22:56:17;;;;;;;5.03;2.55;;;;;;;25.26;37.64;100166.16;5092603;28;20107;-44
2023/04/11 22:58:45;;;;;;;6.07;2.45;;;;;;;25.22;37.86;100182.78;5092817;28;20032;-51
2023/04/11 23:01:14;;;;;;;7.60;2.45;;;;;;;25.18;37.95;100175.81;5093035;28;20024;-53
2023/04/11 23:03:43;;;;;;;3.88;2.15;;;;;;;25.16;37.94;100204.69;5093156;28;20081;-50
2023/04/11 23:06:11;;;;;;;3.72;1.80;;;;;;;25.14;38.10;100210.84;5096865;28;20107;-53
2023/04/11 23:08:40;;;;;;;5.38;2.08;;;;;;;25.14;38.15;100213.47;5096188;28;20023;-53
2023/04/11 23:11:08;;;;;;;5.32;2.30;;;;;;;25.15;38.04;100210.81;5097005;28;20060;-49
2023/04/11 23:13:37;;;;;;;6.95;2.15;;;;;;;25.12;38.06;100225.72;5096864;28;20435;-53
2023/04/11 23:16:07;;;;;;;3.33;1.83;;;;;;;25.11;38.02;100235.31;5096477;28;20473;-50
2023/04/11 23:18:36;;;;;;;5.63;1.80;;;;;;;25.09;37.98;100237.06;5097033;28;20458;-50
2023/04/11 23:21:05;;;;;;;4.45;1.80;;;;;;;25.04;38.00;100217.88;5095086;28;20028;-49
2023/04/11 23:23:34;;;;;;;4.18;1.80;;;;;;;25.09;38.09;100216.09;5096420;28;20486;-53
2023/04/11 23:26:03;;;;;;;5.00;2.13;;;;;;;25.11;38.06;100216.09;5096477;28;20063;-53
2023/04/11 23:28:32;;;;;;;5.28;2.13;;;;;;;25.05;38.06;100210.88;5096726;28;20055;-54
2023/04/11 23:31:01;;;;;;;5.90;3.10;;;;;;;25.09;38.10;100209.97;5096641;28;20081;-49
2023/04/11 23:33:29;;;;;;;5.78;2.95;;;;;;;25.08;38.10;100213.47;5096681;28;20451;-44
2023/04/11 23:35:58;;;;;;;6.65;3.13;;;;;;;25.11;37.75;100223.97;5096042;28;20028;-50
2023/04/11 23:38:27;;;;;;;6.05;2.55;;;;;;;25.04;38.14;100217.88;5096138;28;20051;-49
2023/04/11 23:40:56;;;;;;;4.65;2.50;;;;;;;25.08;37.91;100223.97;5096444;28;20024;-44
2023/04/11 23:43:24;;;;;;;6.05;3.08;;;;;;;25.11;37.82;100213.47;5096333;28;20501;-47
2023/04/11 23:45:54;;;;;;;5.88;2.20;;;;;;;25.00;38.16;100203.88;5095216;28;20020;-43
2023/04/11 23:48:22;;;;;;;5.18;2.58;;;;;;;25.10;37.62;100182.84;5096013;28;20020;-50
2023/04/11 23:50:51;;;;;;;5.55;2.30;;;;;;;25.08;38.00;100171.50;5096760;28;20028;-50
2023/04/11 23:53:20;;;;;;;5.07;2.33;;;;;;;25.04;37.94;100183.75;5096394;28;20024;-49
2023/04/11 23:55:49;;;;;;;5.07;2.35;;;;;;;25.02;37.64;100199.50;5096042;28;20016;-53
2023/04/11 23:58:17;;;;;;;6.00;2.60;;;;;;;24.93;37.73;100211.75;5096042;28;20024;-51
